UKLL/LWO METAR and TAF weather

Enter ICAO airport designator
Station Type Date Time Source
UKLL METAR 2020/02/25 12:00 UTC NOAA

UKLL 251200Z 23005MPS 200V270 9999 SCT032CB BKN032 08/01 Q1003 R31/290055 NOSIG


Station Type Date Time Source
UKLL Decoded METAR 2020/02/25 12:00 UTC NOAA

L'Viv, Ukraine (UKLL) 49-49N 023-57E 323M
Feb 25, 2020 - 07:00 AM EST / 2020.02.25 1200 UTC
Wind: from the SW (230 degrees) at 11 MPH (10 KT) (direction variable):0
Visibility: greater than 7 mile(s):0
Sky conditions: mostly cloudy
Weather: Cumulonimbus clouds observed
Temperature: 46 F (8 C)
Dew Point: 33 F (1 C)
Relative Humidity: 61%
Pressure (altimeter): 29.62 in. Hg (1003 hPa)
ob: UKLL 251200Z 23005MPS 200V270 9999 SCT032CB BKN032 08/01 Q1003 R31/290055 NOSIG
cycle: 12

Station Type Date Time Source
UKLL TAF 2020/02/25 12:12 UTC NOAA

TAF UKLL 251105Z 2512/2612 23006MPS 5000 BR SCT005 BKN015 TX08/2513Z TN03/2523Z
TEMPO 2515/2603 2100 -SHRA BKN007 BKN015CB
BECMG 2515/2517 20005MPS
BECMG 2520/2522 23006MPS
BECMG 2603/2605 VRB01MPS 2100 BR SCT005 BKN006
TEMPO 2605/2612 -SHRA BKN004 BKN020CB

Example: see airport list